sensor_id;sensor_type;location;lat;lon;timestamp;temperature;humidity
7254;DHT22;4060;49.186;9.226;2023-10-19T00:00:15;14.80;60.30
7254;DHT22;4060;49.186;9.226;2023-10-19T00:02:52;14.80;60.10
7254;DHT22;4060;49.186;9.226;2023-10-19T00:05:22;14.80;60.10
7254;DHT22;4060;49.186;9.226;2023-10-19T00:07:54;14.80;60.20
7254;DHT22;4060;49.186;9.226;2023-10-19T00:10:24;14.80;60.40
7254;DHT22;4060;49.186;9.226;2023-10-19T00:12:57;14.80;60.50
7254;DHT22;4060;49.186;9.226;2023-10-19T00:15:27;14.80;60.70
7254;DHT22;4060;49.186;9.226;2023-10-19T00:18:00;14.80;60.80
7254;DHT22;4060;49.186;9.226;2023-10-19T00:20:41;14.80;60.60
7254;DHT22;4060;49.186;9.226;2023-10-19T00:23:19;14.80;60.60
7254;DHT22;4060;49.186;9.226;2023-10-19T00:25:56;14.80;60.90
7254;DHT22;4060;49.186;9.226;2023-10-19T00:28:26;14.80;61.20
7254;DHT22;4060;49.186;9.226;2023-10-19T00:30:55;14.80;61.30
7254;DHT22;4060;49.186;9.226;2023-10-19T00:33:33;14.80;61.50
7254;DHT22;4060;49.186;9.226;2023-10-19T00:36:07;14.80;61.50
7254;DHT22;4060;49.186;9.226;2023-10-19T00:38:38;14.80;61.40
7254;DHT22;4060;49.186;9.226;2023-10-19T00:41:18;14.80;61.50
7254;DHT22;4060;49.186;9.226;2023-10-19T00:43:51;14.80;61.80
7254;DHT22;4060;49.186;9.226;2023-10-19T00:46:26;14.80;61.70
7254;DHT22;4060;49.186;9.226;2023-10-19T00:49:08;14.80;61.60
7254;DHT22;4060;49.186;9.226;2023-10-19T00:51:43;14.80;61.60
7254;DHT22;4060;49.186;9.226;2023-10-19T00:54:25;14.80;61.60
7254;DHT22;4060;49.186;9.226;2023-10-19T00:56:59;14.80;61.70
7254;DHT22;4060;49.186;9.226;2023-10-19T00:59:34;14.80;61.70
7254;DHT22;4060;49.186;9.226;2023-10-19T01:02:10;14.80;61.60
7254;DHT22;4060;49.186;9.226;2023-10-19T01:04:50;14.80;61.50
7254;DHT22;4060;49.186;9.226;2023-10-19T01:07:23;14.80;61.60
7254;DHT22;4060;49.186;9.226;2023-10-19T01:09:57;14.80;61.50
7254;DHT22;4060;49.186;9.226;2023-10-19T01:12:27;14.80;61.70
7254;DHT22;4060;49.186;9.226;2023-10-19T01:15:10;14.80;61.70
7254;DHT22;4060;49.186;9.226;2023-10-19T01:17:44;14.80;61.60
7254;DHT22;4060;49.186;9.226;2023-10-19T01:20:26;14.80;61.60
7254;DHT22;4060;49.186;9.226;2023-10-19T01:23:17;14.80;61.70
7254;DHT22;4060;49.186;9.226;2023-10-19T01:25:54;14.80;61.60
7254;DHT22;4060;49.186;9.226;2023-10-19T01:28:33;14.80;61.60
7254;DHT22;4060;49.186;9.226;2023-10-19T01:31:15;14.80;61.50
7254;DHT22;4060;49.186;9.226;2023-10-19T01:33:50;14.80;61.50
7254;DHT22;4060;49.186;9.226;2023-10-19T01:36:22;14.80;61.50
7254;DHT22;4060;49.186;9.226;2023-10-19T01:38:58;14.80;61.70
7254;DHT22;4060;49.186;9.226;2023-10-19T01:41:28;14.80;62.60
7254;DHT22;4060;49.186;9.226;2023-10-19T01:44:00;14.80;62.00
7254;DHT22;4060;49.186;9.226;2023-10-19T01:46:31;14.80;62.20
7254;DHT22;4060;49.186;9.226;2023-10-19T01:49:02;14.80;62.30
7254;DHT22;4060;49.186;9.226;2023-10-19T01:51:32;14.80;62.40
7254;DHT22;4060;49.186;9.226;2023-10-19T01:54:08;14.80;62.50
7254;DHT22;4060;49.186;9.226;2023-10-19T01:56:36;14.80;62.50
7254;DHT22;4060;49.186;9.226;2023-10-19T01:59:10;14.80;62.50
7254;DHT22;4060;49.186;9.226;2023-10-19T02:01:43;14.80;62.60
7254;DHT22;4060;49.186;9.226;2023-10-19T02:04:12;14.80;63.40
7254;DHT22;4060;49.186;9.226;2023-10-19T02:06:42;14.80;62.60
7254;DHT22;4060;49.186;9.226;2023-10-19T02:09:15;14.80;62.50
7254;DHT22;4060;49.186;9.226;2023-10-19T02:11:52;14.80;62.60
7254;DHT22;4060;49.186;9.226;2023-10-19T02:14:20;14.80;62.70
7254;DHT22;4060;49.186;9.226;2023-10-19T02:16:53;14.80;62.80
7254;DHT22;4060;49.186;9.226;2023-10-19T02:19:24;14.80;62.90
7254;DHT22;4060;49.186;9.226;2023-10-19T02:21:55;14.80;63.10
7254;DHT22;4060;49.186;9.226;2023-10-19T02:24:25;14.80;63.40
7254;DHT22;4060;49.186;9.226;2023-10-19T02:26:56;14.80;63.40
7254;DHT22;4060;49.186;9.226;2023-10-19T02:29:24;14.80;63.40
7254;DHT22;4060;49.186;9.226;2023-10-19T02:31:56;14.80;63.70
7254;DHT22;4060;49.186;9.226;2023-10-19T02:34:24;14.80;64.00
7254;DHT22;4060;49.186;9.226;2023-10-19T02:36:54;14.80;63.90
7254;DHT22;4060;49.186;9.226;2023-10-19T02:39:25;14.80;63.90
7254;DHT22;4060;49.186;9.226;2023-10-19T02:41:55;14.80;64.00
7254;DHT22;4060;49.186;9.226;2023-10-19T02:44:24;14.80;64.00
7254;DHT22;4060;49.186;9.226;2023-10-19T02:46:54;14.80;64.10
7254;DHT22;4060;49.186;9.226;2023-10-19T02:49:27;14.80;64.10
7254;DHT22;4060;49.186;9.226;2023-10-19T02:51:57;14.80;64.20
7254;DHT22;4060;49.186;9.226;2023-10-19T02:54:33;14.80;64.40
7254;DHT22;4060;49.186;9.226;2023-10-19T02:57:03;14.80;64.80
7254;DHT22;4060;49.186;9.226;2023-10-19T02:59:34;14.80;65.60
7254;DHT22;4060;49.186;9.226;2023-10-19T03:02:03;14.80;66.30
7254;DHT22;4060;49.186;9.226;2023-10-19T03:04:44;14.90;66.90
7254;DHT22;4060;49.186;9.226;2023-10-19T03:07:14;14.80;67.10
7254;DHT22;4060;49.186;9.226;2023-10-19T03:09:44;14.90;67.50
7254;DHT22;4060;49.186;9.226;2023-10-19T03:12:21;14.90;67.60
7254;DHT22;4060;49.186;9.226;2023-10-19T03:14:53;14.90;67.70
7254;DHT22;4060;49.186;9.226;2023-10-19T03:17:22;14.90;67.90
7254;DHT22;4060;49.186;9.226;2023-10-19T03:19:52;14.90;68.10
7254;DHT22;4060;49.186;9.226;2023-10-19T03:22:21;14.90;67.90
7254;DHT22;4060;49.186;9.226;2023-10-19T03:24:52;14.90;67.50
7254;DHT22;4060;49.186;9.226;2023-10-19T03:27:39;14.90;67.20
7254;DHT22;4060;49.186;9.226;2023-10-19T03:30:12;14.90;66.60
7254;DHT22;4060;49.186;9.226;2023-10-19T03:32:43;14.90;66.20
7254;DHT22;4060;49.186;9.226;2023-10-19T03:35:12;14.90;66.00
7254;DHT22;4060;49.186;9.226;2023-10-19T03:37:43;14.90;66.00
7254;DHT22;4060;49.186;9.226;2023-10-19T03:40:17;14.90;65.70
7254;DHT22;4060;49.186;9.226;2023-10-19T03:42:55;14.90;65.50
7254;DHT22;4060;49.186;9.226;2023-10-19T03:45:25;14.90;65.30
7254;DHT22;4060;49.186;9.226;2023-10-19T03:48:00;14.90;65.30
7254;DHT22;4060;49.186;9.226;2023-10-19T03:50:36;14.90;65.30
7254;DHT22;4060;49.186;9.226;2023-10-19T03:53:07;14.90;65.30
7254;DHT22;4060;49.186;9.226;2023-10-19T03:55:41;14.90;65.40
7254;DHT22;4060;49.186;9.226;2023-10-19T03:58:11;14.90;65.40
7254;DHT22;4060;49.186;9.226;2023-10-19T04:00:42;14.90;65.30
7254;DHT22;4060;49.186;9.226;2023-10-19T04:03:12;14.90;65.10
7254;DHT22;4060;49.186;9.226;2023-10-19T04:05:41;14.90;65.10
7254;DHT22;4060;49.186;9.226;2023-10-19T04:08:14;14.90;64.90
7254;DHT22;4060;49.186;9.226;2023-10-19T04:10:50;14.90;64.80
7254;DHT22;4060;49.186;9.226;2023-10-19T04:13:33;14.90;64.80
7254;DHT22;4060;49.186;9.226;2023-10-19T04:16:04;14.90;64.70
7254;DHT22;4060;49.186;9.226;2023-10-19T04:18:36;14.90;64.90
7254;DHT22;4060;49.186;9.226;2023-10-19T04:21:11;14.90;65.00
7254;DHT22;4060;49.186;9.226;2023-10-19T04:23:42;14.90;65.00
7254;DHT22;4060;49.186;9.226;2023-10-19T04:26:15;14.90;65.00
7254;DHT22;4060;49.186;9.226;2023-10-19T04:28:45;14.90;65.00
7254;DHT22;4060;49.186;9.226;2023-10-19T04:31:18;14.90;65.10
7254;DHT22;4060;49.186;9.226;2023-10-19T04:33:50;14.90;65.10
7254;DHT22;4060;49.186;9.226;2023-10-19T04:36:21;14.90;65.10
7254;DHT22;4060;49.186;9.226;2023-10-19T04:38:52;14.90;65.30
7254;DHT22;4060;49.186;9.226;2023-10-19T04:41:25;14.90;65.20
7254;DHT22;4060;49.186;9.226;2023-10-19T04:43:56;14.90;65.30
7254;DHT22;4060;49.186;9.226;2023-10-19T04:46:27;14.90;65.30
7254;DHT22;4060;49.186;9.226;2023-10-19T04:48:57;14.90;65.30
7254;DHT22;4060;49.186;9.226;2023-10-19T04:51:27;14.90;65.20
7254;DHT22;4060;49.186;9.226;2023-10-19T04:53:57;14.90;65.20
7254;DHT22;4060;49.186;9.226;2023-10-19T04:56:30;14.90;65.30
7254;DHT22;4060;49.186;9.226;2023-10-19T04:59:00;14.90;65.30
7254;DHT22;4060;49.186;9.226;2023-10-19T05:01:31;14.90;65.20
7254;DHT22;4060;49.186;9.226;2023-10-19T05:04:01;14.90;65.10
7254;DHT22;4060;49.186;9.226;2023-10-19T05:06:31;14.90;65.00
7254;DHT22;4060;49.186;9.226;2023-10-19T05:09:00;14.90;64.90
7254;DHT22;4060;49.186;9.226;2023-10-19T05:11:33;14.90;64.90
7254;DHT22;4060;49.186;9.226;2023-10-19T05:14:03;14.90;64.90
7254;DHT22;4060;49.186;9.226;2023-10-19T05:16:33;14.90;64.80
7254;DHT22;4060;49.186;9.226;2023-10-19T05:19:03;14.90;64.70
7254;DHT22;4060;49.186;9.226;2023-10-19T05:21:33;14.90;64.60
7254;DHT22;4060;49.186;9.226;2023-10-19T05:24:04;14.90;64.60
7254;DHT22;4060;49.186;9.226;2023-10-19T05:26:36;14.90;64.60
7254;DHT22;4060;49.186;9.226;2023-10-19T05:29:05;14.90;64.80
7254;DHT22;4060;49.186;9.226;2023-10-19T05:31:40;14.90;64.70
7254;DHT22;4060;49.186;9.226;2023-10-19T05:34:10;14.90;64.80
7254;DHT22;4060;49.186;9.226;2023-10-19T05:36:39;14.90;64.80
7254;DHT22;4060;49.186;9.226;2023-10-19T05:39:14;14.90;64.90
7254;DHT22;4060;49.186;9.226;2023-10-19T05:41:46;14.90;64.80
7254;DHT22;4060;49.186;9.226;2023-10-19T05:44:16;14.90;64.90
7254;DHT22;4060;49.186;9.226;2023-10-19T05:46:46;14.90;64.80
7254;DHT22;4060;49.186;9.226;2023-10-19T05:49:16;14.90;65.10
7254;DHT22;4060;49.186;9.226;2023-10-19T05:51:47;14.90;64.80
7254;DHT22;4060;49.186;9.226;2023-10-19T05:54:17;14.90;64.80
7254;DHT22;4060;49.186;9.226;2023-10-19T05:56:48;14.90;64.80
7254;DHT22;4060;49.186;9.226;2023-10-19T05:59:21;14.90;64.80
7254;DHT22;4060;49.186;9.226;2023-10-19T06:01:54;14.90;64.80
7254;DHT22;4060;49.186;9.226;2023-10-19T06:04:24;14.90;64.80
7254;DHT22;4060;49.186;9.226;2023-10-19T06:06:53;14.90;64.80
7254;DHT22;4060;49.186;9.226;2023-10-19T06:09:23;14.90;64.90
7254;DHT22;4060;49.186;9.226;2023-10-19T06:11:59;14.90;64.90
7254;DHT22;4060;49.186;9.226;2023-10-19T06:14:28;14.90;64.90
7254;DHT22;4060;49.186;9.226;2023-10-19T06:16:58;14.80;64.80
7254;DHT22;4060;49.186;9.226;2023-10-19T06:19:28;14.90;64.90
7254;DHT22;4060;49.186;9.226;2023-10-19T06:21:58;14.90;64.90
7254;DHT22;4060;49.186;9.226;2023-10-19T06:24:28;14.80;64.80
7254;DHT22;4060;49.186;9.226;2023-10-19T06:27:00;14.90;65.00
7254;DHT22;4060;49.186;9.226;2023-10-19T06:29:31;14.90;65.10
7254;DHT22;4060;49.186;9.226;2023-10-19T06:32:00;14.80;64.90
7254;DHT22;4060;49.186;9.226;2023-10-19T06:34:30;14.80;64.90
7254;DHT22;4060;49.186;9.226;2023-10-19T06:37:00;14.80;64.80
7254;DHT22;4060;49.186;9.226;2023-10-19T06:39:31;14.80;64.80
7254;DHT22;4060;49.186;9.226;2023-10-19T06:42:02;14.80;65.00
7254;DHT22;4060;49.186;9.226;2023-10-19T06:44:32;14.80;64.90
7254;DHT22;4060;49.186;9.226;2023-10-19T06:47:03;14.80;65.00
7254;DHT22;4060;49.186;9.226;2023-10-19T06:49:34;14.80;64.80
7254;DHT22;4060;49.186;9.226;2023-10-19T06:52:04;14.80;64.80
7254;DHT22;4060;49.186;9.226;2023-10-19T06:54:34;14.80;64.90
7254;DHT22;4060;49.186;9.226;2023-10-19T06:57:05;14.80;65.10
7254;DHT22;4060;49.186;9.226;2023-10-19T06:59:36;14.80;65.30
7254;DHT22;4060;49.186;9.226;2023-10-19T07:02:07;14.80;65.50
7254;DHT22;4060;49.186;9.226;2023-10-19T07:04:40;14.80;65.60
7254;DHT22;4060;49.186;9.226;2023-10-19T07:07:10;14.80;65.70
7254;DHT22;4060;49.186;9.226;2023-10-19T07:09:40;14.80;65.80
7254;DHT22;4060;49.186;9.226;2023-10-19T07:12:12;14.80;65.80
7254;DHT22;4060;49.186;9.226;2023-10-19T07:14:42;14.80;65.90
7254;DHT22;4060;49.186;9.226;2023-10-19T07:17:12;14.80;65.90
7254;DHT22;4060;49.186;9.226;2023-10-19T07:19:43;14.80;66.00
7254;DHT22;4060;49.186;9.226;2023-10-19T07:22:16;14.80;66.10
7254;DHT22;4060;49.186;9.226;2023-10-19T07:24:50;14.80;66.20
7254;DHT22;4060;49.186;9.226;2023-10-19T07:27:23;14.80;66.30
7254;DHT22;4060;49.186;9.226;2023-10-19T07:29:55;14.80;66.40
7254;DHT22;4060;49.186;9.226;2023-10-19T07:32:26;14.80;66.50
7254;DHT22;4060;49.186;9.226;2023-10-19T07:34:58;14.80;66.60
7254;DHT22;4060;49.186;9.226;2023-10-19T07:37:27;14.80;66.80
7254;DHT22;4060;49.186;9.226;2023-10-19T07:39:57;14.90;66.70
7254;DHT22;4060;49.186;9.226;2023-10-19T07:42:28;14.90;66.70
7254;DHT22;4060;49.186;9.226;2023-10-19T07:44:59;14.90;66.70
7254;DHT22;4060;49.186;9.226;2023-10-19T07:47:29;14.90;66.60
7254;DHT22;4060;49.186;9.226;2023-10-19T07:49:59;14.90;66.50
7254;DHT22;4060;49.186;9.226;2023-10-19T07:52:30;14.90;66.50
7254;DHT22;4060;49.186;9.226;2023-10-19T07:55:04;14.90;66.60
7254;DHT22;4060;49.186;9.226;2023-10-19T07:57:36;14.90;66.70
7254;DHT22;4060;49.186;9.226;2023-10-19T08:00:09;14.90;66.80
7254;DHT22;4060;49.186;9.226;2023-10-19T08:02:42;14.90;67.00
7254;DHT22;4060;49.186;9.226;2023-10-19T08:05:13;14.90;67.00
7254;DHT22;4060;49.186;9.226;2023-10-19T08:07:43;14.90;67.00
7254;DHT22;4060;49.186;9.226;2023-10-19T08:10:15;14.90;67.10
7254;DHT22;4060;49.186;9.226;2023-10-19T08:12:48;14.90;67.20
7254;DHT22;4060;49.186;9.226;2023-10-19T08:15:19;14.90;67.20
7254;DHT22;4060;49.186;9.226;2023-10-19T08:17:50;14.90;67.20
7254;DHT22;4060;49.186;9.226;2023-10-19T08:20:22;14.90;67.40
7254;DHT22;4060;49.186;9.226;2023-10-19T08:22:55;15.00;67.50
7254;DHT22;4060;49.186;9.226;2023-10-19T08:25:26;15.00;67.70
7254;DHT22;4060;49.186;9.226;2023-10-19T08:27:59;15.00;67.80
7254;DHT22;4060;49.186;9.226;2023-10-19T08:30:28;15.00;68.10
7254;DHT22;4060;49.186;9.226;2023-10-19T08:32:58;15.00;68.20
7254;DHT22;4060;49.186;9.226;2023-10-19T08:35:29;15.00;68.20
7254;DHT22;4060;49.186;9.226;2023-10-19T08:37:58;15.00;68.50
7254;DHT22;4060;49.186;9.226;2023-10-19T08:40:31;15.00;68.30
7254;DHT22;4060;49.186;9.226;2023-10-19T08:43:04;15.00;68.30
7254;DHT22;4060;49.186;9.226;2023-10-19T08:45:35;15.00;68.50
7254;DHT22;4060;49.186;9.226;2023-10-19T08:48:06;15.10;69.00
7254;DHT22;4060;49.186;9.226;2023-10-19T08:50:36;15.10;69.60
7254;DHT22;4060;49.186;9.226;2023-10-19T08:53:08;15.10;69.90
7254;DHT22;4060;49.186;9.226;2023-10-19T08:55:38;15.20;70.50
7254;DHT22;4060;49.186;9.226;2023-10-19T08:58:11;15.20;70.70
7254;DHT22;4060;49.186;9.226;2023-10-19T09:00:45;15.30;71.00
7254;DHT22;4060;49.186;9.226;2023-10-19T09:03:21;15.30;70.90
7254;DHT22;4060;49.186;9.226;2023-10-19T09:05:52;15.40;71.00
7254;DHT22;4060;49.186;9.226;2023-10-19T09:08:21;15.40;70.90
7254;DHT22;4060;49.186;9.226;2023-10-19T09:10:51;15.40;71.00
7254;DHT22;4060;49.186;9.226;2023-10-19T09:13:27;15.50;71.50
7254;DHT22;4060;49.186;9.226;2023-10-19T09:16:05;15.50;71.40
7254;DHT22;4060;49.186;9.226;2023-10-19T09:18:37;15.50;71.50
7254;DHT22;4060;49.186;9.226;2023-10-19T09:21:08;15.60;71.80
7254;DHT22;4060;49.186;9.226;2023-10-19T09:23:38;15.60;72.10
7254;DHT22;4060;49.186;9.226;2023-10-19T09:26:09;15.60;72.20
7254;DHT22;4060;49.186;9.226;2023-10-19T09:28:45;15.60;72.10
7254;DHT22;4060;49.186;9.226;2023-10-19T09:31:18;15.70;72.30
7254;DHT22;4060;49.186;9.226;2023-10-19T09:33:49;15.80;72.40
7254;DHT22;4060;49.186;9.226;2023-10-19T09:36:21;15.80;72.40
7254;DHT22;4060;49.186;9.226;2023-10-19T09:38:53;15.80;72.80
7254;DHT22;4060;49.186;9.226;2023-10-19T09:41:25;15.90;73.20
7254;DHT22;4060;49.186;9.226;2023-10-19T09:44:02;15.90;73.50
7254;DHT22;4060;49.186;9.226;2023-10-19T09:46:40;15.90;73.70
7254;DHT22;4060;49.186;9.226;2023-10-19T09:49:12;16.00;73.90
7254;DHT22;4060;49.186;9.226;2023-10-19T09:51:44;16.00;74.20
7254;DHT22;4060;49.186;9.226;2023-10-19T09:54:27;16.00;74.50
7254;DHT22;4060;49.186;9.226;2023-10-19T09:57:07;16.10;74.90
7254;DHT22;4060;49.186;9.226;2023-10-19T09:59:51;16.10;74.60
7254;DHT22;4060;49.186;9.226;2023-10-19T10:02:28;16.10;74.10
7254;DHT22;4060;49.186;9.226;2023-10-19T10:04:58;16.10;74.00
7254;DHT22;4060;49.186;9.226;2023-10-19T10:07:27;16.10;74.10
7254;DHT22;4060;49.186;9.226;2023-10-19T10:09:57;16.10;74.90
7254;DHT22;4060;49.186;9.226;2023-10-19T10:12:27;16.20;74.50
7254;DHT22;4060;49.186;9.226;2023-10-19T10:15:01;16.20;74.50
7254;DHT22;4060;49.186;9.226;2023-10-19T10:17:36;16.20;74.70
7254;DHT22;4060;49.186;9.226;2023-10-19T10:20:35;16.30;74.70
7254;DHT22;4060;49.186;9.226;2023-10-19T10:23:19;16.30;75.00
7254;DHT22;4060;49.186;9.226;2023-10-19T10:25:51;16.30;74.90
7254;DHT22;4060;49.186;9.226;2023-10-19T10:28:24;16.40;74.90
7254;DHT22;4060;49.186;9.226;2023-10-19T10:31:16;16.40;74.90
7254;DHT22;4060;49.186;9.226;2023-10-19T10:33:50;16.40;75.20
7254;DHT22;4060;49.186;9.226;2023-10-19T10:36:22;16.40;74.90
7254;DHT22;4060;49.186;9.226;2023-10-19T10:39:03;16.50;75.10
7254;DHT22;4060;49.186;9.226;2023-10-19T10:41:44;16.50;75.40
7254;DHT22;4060;49.186;9.226;2023-10-19T10:44:14;16.50;75.10
7254;DHT22;4060;49.186;9.226;2023-10-19T10:46:48;16.60;75.40
7254;DHT22;4060;49.186;9.226;2023-10-19T10:49:18;16.60;75.70
7254;DHT22;4060;49.186;9.226;2023-10-19T10:51:48;16.60;75.90
7254;DHT22;4060;49.186;9.226;2023-10-19T10:54:22;16.60;76.20
7254;DHT22;4060;49.186;9.226;2023-10-19T10:56:52;16.70;76.50
7254;DHT22;4060;49.186;9.226;2023-10-19T10:59:22;16.70;76.30
7254;DHT22;4060;49.186;9.226;2023-10-19T11:01:55;16.70;76.30
7254;DHT22;4060;49.186;9.226;2023-10-19T11:04:24;16.80;76.30
7254;DHT22;4060;49.186;9.226;2023-10-19T11:06:55;16.80;76.20
7254;DHT22;4060;49.186;9.226;2023-10-19T11:09:24;16.80;76.30
7254;DHT22;4060;49.186;9.226;2023-10-19T11:11:55;16.80;76.30
7254;DHT22;4060;49.186;9.226;2023-10-19T11:14:25;16.90;76.40
7254;DHT22;4060;49.186;9.226;2023-10-19T11:17:13;16.90;76.60
7254;DHT22;4060;49.186;9.226;2023-10-19T11:19:42;16.90;76.90
7254;DHT22;4060;49.186;9.226;2023-10-19T11:22:12;16.90;76.50
7254;DHT22;4060;49.186;9.226;2023-10-19T11:24:42;17.00;76.70
7254;DHT22;4060;49.186;9.226;2023-10-19T11:27:12;17.00;76.80
7254;DHT22;4060;49.186;9.226;2023-10-19T11:29:55;17.00;76.90
7254;DHT22;4060;49.186;9.226;2023-10-19T11:32:37;17.10;77.30
7254;DHT22;4060;49.186;9.226;2023-10-19T11:35:07;17.10;77.40
7254;DHT22;4060;49.186;9.226;2023-10-19T11:37:47;17.10;77.10
7254;DHT22;4060;49.186;9.226;2023-10-19T11:40:17;17.10;77.40
7254;DHT22;4060;49.186;9.226;2023-10-19T11:42:48;17.20;77.50
7254;DHT22;4060;49.186;9.226;2023-10-19T11:45:18;17.20;77.50
7254;DHT22;4060;49.186;9.226;2023-10-19T11:47:50;17.20;77.50
7254;DHT22;4060;49.186;9.226;2023-10-19T11:50:20;17.20;77.80
7254;DHT22;4060;49.186;9.226;2023-10-19T11:52:50;17.20;77.90
7254;DHT22;4060;49.186;9.226;2023-10-19T11:55:19;17.30;78.00
7254;DHT22;4060;49.186;9.226;2023-10-19T11:57:49;17.30;78.00
7254;DHT22;4060;49.186;9.226;2023-10-19T12:00:19;17.30;77.70
7254;DHT22;4060;49.186;9.226;2023-10-19T12:02:54;17.30;77.70
7254;DHT22;4060;49.186;9.226;2023-10-19T12:05:24;17.30;77.90
7254;DHT22;4060;49.186;9.226;2023-10-19T12:07:54;17.40;77.90
7254;DHT22;4060;49.186;9.226;2023-10-19T12:10:23;17.40;77.70
7254;DHT22;4060;49.186;9.226;2023-10-19T12:12:55;17.40;77.60
7254;DHT22;4060;49.186;9.226;2023-10-19T12:15:26;17.40;77.50
7254;DHT22;4060;49.186;9.226;2023-10-19T12:17:58;17.40;77.30
7254;DHT22;4060;49.186;9.226;2023-10-19T12:20:31;17.40;77.00
7254;DHT22;4060;49.186;9.226;2023-10-19T12:23:02;17.40;76.80
7254;DHT22;4060;49.186;9.226;2023-10-19T12:25:32;17.40;76.60
7254;DHT22;4060;49.186;9.226;2023-10-19T12:28:02;17.40;76.50
7254;DHT22;4060;49.186;9.226;2023-10-19T12:30:32;17.50;76.60
7254;DHT22;4060;49.186;9.226;2023-10-19T12:33:06;17.40;76.70
7254;DHT22;4060;49.186;9.226;2023-10-19T12:35:38;17.50;76.90
7254;DHT22;4060;49.186;9.226;2023-10-19T12:38:16;17.50;76.80
7254;DHT22;4060;49.186;9.226;2023-10-19T12:40:48;17.50;76.90
7254;DHT22;4060;49.186;9.226;2023-10-19T12:43:18;17.50;77.10
7254;DHT22;4060;49.186;9.226;2023-10-19T12:45:49;17.50;76.90
7254;DHT22;4060;49.186;9.226;2023-10-19T12:48:28;17.50;76.70
7254;DHT22;4060;49.186;9.226;2023-10-19T12:51:00;17.50;76.50
7254;DHT22;4060;49.186;9.226;2023-10-19T12:53:31;17.50;76.50
7254;DHT22;4060;49.186;9.226;2023-10-19T12:56:00;17.50;76.60
7254;DHT22;4060;49.186;9.226;2023-10-19T12:58:30;17.50;76.60
7254;DHT22;4060;49.186;9.226;2023-10-19T13:00:59;17.50;77.20
7254;DHT22;4060;49.186;9.226;2023-10-19T13:03:34;17.50;76.60
7254;DHT22;4060;49.186;9.226;2023-10-19T13:06:05;17.60;77.00
7254;DHT22;4060;49.186;9.226;2023-10-19T13:08:35;17.60;77.10
7254;DHT22;4060;49.186;9.226;2023-10-19T13:11:05;17.60;77.50
7254;DHT22;4060;49.186;9.226;2023-10-19T13:13:34;17.60;77.70
7254;DHT22;4060;49.186;9.226;2023-10-19T13:16:05;17.60;77.70
7254;DHT22;4060;49.186;9.226;2023-10-19T13:18:38;17.60;77.80
7254;DHT22;4060;49.186;9.226;2023-10-19T13:21:08;17.60;77.90
7254;DHT22;4060;49.186;9.226;2023-10-19T13:23:39;17.60;77.90
7254;DHT22;4060;49.186;9.226;2023-10-19T13:26:11;17.60;77.70
7254;DHT22;4060;49.186;9.226;2023-10-19T13:28:46;17.70;77.60
7254;DHT22;4060;49.186;9.226;2023-10-19T13:31:17;17.70;77.50
7254;DHT22;4060;49.186;9.226;2023-10-19T13:33:50;17.70;77.60
7254;DHT22;4060;49.186;9.226;2023-10-19T13:36:21;17.70;77.60
7254;DHT22;4060;49.186;9.226;2023-10-19T13:38:52;17.70;77.60
7254;DHT22;4060;49.186;9.226;2023-10-19T13:41:22;17.70;77.80
7254;DHT22;4060;49.186;9.226;2023-10-19T13:43:52;17.70;77.70
7254;DHT22;4060;49.186;9.226;2023-10-19T13:46:22;17.70;77.50
7254;DHT22;4060;49.186;9.226;2023-10-19T13:48:54;17.70;77.40
7254;DHT22;4060;49.186;9.226;2023-10-19T13:51:23;17.70;77.30
7254;DHT22;4060;49.186;9.226;2023-10-19T13:53:53;17.70;77.30
7254;DHT22;4060;49.186;9.226;2023-10-19T13:56:23;17.70;77.30
7254;DHT22;4060;49.186;9.226;2023-10-19T13:58:53;17.80;77.60
7254;DHT22;4060;49.186;9.226;2023-10-19T14:01:23;17.80;77.60
7254;DHT22;4060;49.186;9.226;2023-10-19T14:03:56;17.80;77.60
7254;DHT22;4060;49.186;9.226;2023-10-19T14:06:26;17.80;77.80
7254;DHT22;4060;49.186;9.226;2023-10-19T14:08:56;17.80;77.90
7254;DHT22;4060;49.186;9.226;2023-10-19T14:11:26;17.80;77.80
7254;DHT22;4060;49.186;9.226;2023-10-19T14:13:56;17.80;77.90
7254;DHT22;4060;49.186;9.226;2023-10-19T14:16:26;17.80;77.70
7254;DHT22;4060;49.186;9.226;2023-10-19T14:18:58;17.80;77.70
7254;DHT22;4060;49.186;9.226;2023-10-19T14:21:27;17.80;77.60
7254;DHT22;4060;49.186;9.226;2023-10-19T14:23:57;17.80;77.40
7254;DHT22;4060;49.186;9.226;2023-10-19T14:26:26;17.90;77.20
7254;DHT22;4060;49.186;9.226;2023-10-19T14:28:57;17.90;77.30
7254;DHT22;4060;49.186;9.226;2023-10-19T14:31:27;17.90;77.40
7254;DHT22;4060;49.186;9.226;2023-10-19T14:33:58;17.90;77.30
7254;DHT22;4060;49.186;9.226;2023-10-19T14:36:28;17.90;77.20
7254;DHT22;4060;49.186;9.226;2023-10-19T14:38:59;17.90;77.20
7254;DHT22;4060;49.186;9.226;2023-10-19T14:41:29;17.90;77.20
7254;DHT22;4060;49.186;9.226;2023-10-19T14:43:58;17.90;77.30
7254;DHT22;4060;49.186;9.226;2023-10-19T14:46:30;17.90;77.40
7254;DHT22;4060;49.186;9.226;2023-10-19T14:49:02;17.90;77.30
7254;DHT22;4060;49.186;9.226;2023-10-19T14:51:31;17.90;77.10
7254;DHT22;4060;49.186;9.226;2023-10-19T14:54:01;17.90;76.80
7254;DHT22;4060;49.186;9.226;2023-10-19T14:56:31;17.90;76.50
7254;DHT22;4060;49.186;9.226;2023-10-19T14:59:00;17.90;76.20
7254;DHT22;4060;49.186;9.226;2023-10-19T15:01:32;17.90;76.20
7254;DHT22;4060;49.186;9.226;2023-10-19T15:04:05;17.90;76.30
7254;DHT22;4060;49.186;9.226;2023-10-19T15:06:36;17.90;76.30
7254;DHT22;4060;49.186;9.226;2023-10-19T15:09:06;17.90;76.20
7254;DHT22;4060;49.186;9.226;2023-10-19T15:11:43;18.00;76.20
7254;DHT22;4060;49.186;9.226;2023-10-19T15:14:13;17.90;75.70
7254;DHT22;4060;49.186;9.226;2023-10-19T15:16:43;18.00;75.80
7254;DHT22;4060;49.186;9.226;2023-10-19T15:19:15;17.90;75.70
7254;DHT22;4060;49.186;9.226;2023-10-19T15:21:45;17.90;76.00
7254;DHT22;4060;49.186;9.226;2023-10-19T15:24:15;17.90;76.10
7254;DHT22;4060;49.186;9.226;2023-10-19T15:26:46;17.90;76.20
7254;DHT22;4060;49.186;9.226;2023-10-19T15:29:17;17.90;76.10
7254;DHT22;4060;49.186;9.226;2023-10-19T15:31:46;17.90;76.00
7254;DHT22;4060;49.186;9.226;2023-10-19T15:34:18;17.90;75.80
7254;DHT22;4060;49.186;9.226;2023-10-19T15:36:48;17.90;75.80
7254;DHT22;4060;49.186;9.226;2023-10-19T15:39:19;17.90;75.90
7254;DHT22;4060;49.186;9.226;2023-10-19T15:41:50;17.90;75.80
7254;DHT22;4060;49.186;9.226;2023-10-19T15:44:20;17.90;75.80
7254;DHT22;4060;49.186;9.226;2023-10-19T15:46:49;17.90;75.80
7254;DHT22;4060;49.186;9.226;2023-10-19T15:49:22;17.90;75.80
7254;DHT22;4060;49.186;9.226;2023-10-19T15:51:52;18.00;76.60
7254;DHT22;4060;49.186;9.226;2023-10-19T15:54:22;18.00;77.30
7254;DHT22;4060;49.186;9.226;2023-10-19T15:56:52;18.00;77.70
7254;DHT22;4060;49.186;9.226;2023-10-19T15:59:21;17.90;77.60
7254;DHT22;4060;49.186;9.226;2023-10-19T16:01:51;18.00;77.90
7254;DHT22;4060;49.186;9.226;2023-10-19T16:04:22;18.00;78.20
7254;DHT22;4060;49.186;9.226;2023-10-19T16:06:52;18.00;78.30
7254;DHT22;4060;49.186;9.226;2023-10-19T16:09:22;18.00;78.30
7254;DHT22;4060;49.186;9.226;2023-10-19T16:11:52;18.00;78.30
7254;DHT22;4060;49.186;9.226;2023-10-19T16:14:22;18.00;78.40
7254;DHT22;4060;49.186;9.226;2023-10-19T16:16:53;18.00;78.40
7254;DHT22;4060;49.186;9.226;2023-10-19T16:19:25;18.00;79.40
7254;DHT22;4060;49.186;9.226;2023-10-19T16:21:57;18.10;81.20
7254;DHT22;4060;49.186;9.226;2023-10-19T16:24:27;18.30;82.30
7254;DHT22;4060;49.186;9.226;2023-10-19T16:26:56;18.50;82.90
7254;DHT22;4060;49.186;9.226;2023-10-19T16:29:26;18.70;82.90
7254;DHT22;4060;49.186;9.226;2023-10-19T16:31:56;18.90;82.70